sensor_id;sensor_type;location;lat;lon;timestamp;P1;durP1;ratioP1;P2;durP2;ratioP2
59571;SDS011;59406;45.602;11.904;2023-04-03T00:00:26;4.63;;;1.70;;
59571;SDS011;59406;45.602;11.904;2023-04-03T00:02:52;4.63;;;1.53;;
59571;SDS011;59406;45.602;11.904;2023-04-03T00:05:18;4.38;;;1.75;;
59571;SDS011;59406;45.602;11.904;2023-04-03T00:07:44;4.35;;;1.90;;
59571;SDS011;59406;45.602;11.904;2023-04-03T00:10:11;4.75;;;1.88;;
59571;SDS011;59406;45.602;11.904;2023-04-03T00:12:38;4.50;;;1.77;;
59571;SDS011;59406;45.602;11.904;2023-04-03T00:15:05;4.35;;;1.30;;
59571;SDS011;59406;45.602;11.904;2023-04-03T00:17:31;4.97;;;1.80;;
59571;SDS011;59406;45.602;11.904;2023-04-03T00:19:57;4.57;;;1.80;;
59571;SDS011;59406;45.602;11.904;2023-04-03T00:22:23;5.67;;;2.60;;
59571;SDS011;59406;45.602;11.904;2023-04-03T00:24:51;5.22;;;1.80;;
59571;SDS011;59406;45.602;11.904;2023-04-03T00:27:17;4.95;;;2.40;;
59571;SDS011;59406;45.602;11.904;2023-04-03T00:29:43;5.60;;;2.15;;
59571;SDS011;59406;45.602;11.904;2023-04-03T00:32:09;4.73;;;1.70;;
59571;SDS011;59406;45.602;11.904;2023-04-03T00:34:35;4.55;;;1.80;;
59571;SDS011;59406;45.602;11.904;2023-04-03T00:37:01;4.28;;;1.67;;
59571;SDS011;59406;45.602;11.904;2023-04-03T00:39:27;5.03;;;1.90;;
59571;SDS011;59406;45.602;11.904;2023-04-03T00:41:53;5.80;;;2.28;;
59571;SDS011;59406;45.602;11.904;2023-04-03T00:45:18;5.05;;;2.20;;
59571;SDS011;59406;45.602;11.904;2023-04-03T00:47:05;5.32;;;2.53;;
59571;SDS011;59406;45.602;11.904;2023-04-03T00:49:33;5.47;;;2.50;;
59571;SDS011;59406;45.602;11.904;2023-04-03T00:52:01;5.13;;;2.58;;
59571;SDS011;59406;45.602;11.904;2023-04-03T00:54:27;4.85;;;2.20;;
59571;SDS011;59406;45.602;11.904;2023-04-03T00:56:54;4.63;;;1.70;;
59571;SDS011;59406;45.602;11.904;2023-04-03T00:59:30;5.25;;;2.15;;
59571;SDS011;59406;45.602;11.904;2023-04-03T01:01:59;4.77;;;2.10;;
59571;SDS011;59406;45.602;11.904;2023-04-03T01:04:33;6.10;;;3.35;;
59571;SDS011;59406;45.602;11.904;2023-04-03T01:07:08;5.80;;;2.67;;
59571;SDS011;59406;45.602;11.904;2023-04-03T01:09:38;5.03;;;2.33;;
59571;SDS011;59406;45.602;11.904;2023-04-03T01:12:21;5.60;;;2.45;;
59571;SDS011;59406;45.602;11.904;2023-04-03T01:14:51;5.83;;;2.30;;
59571;SDS011;59406;45.602;11.904;2023-04-03T01:17:25;4.80;;;2.50;;
59571;SDS011;59406;45.602;11.904;2023-04-03T01:19:56;5.43;;;2.70;;
59571;SDS011;59406;45.602;11.904;2023-04-03T01:25:31;5.63;;;2.08;;
59571;SDS011;59406;45.602;11.904;2023-04-03T01:27:58;4.70;;;1.90;;
59571;SDS011;59406;45.602;11.904;2023-04-03T01:30:25;4.88;;;1.80;;
59571;SDS011;59406;45.602;11.904;2023-04-03T01:33:01;5.40;;;1.90;;
59571;SDS011;59406;45.602;11.904;2023-04-03T01:35:27;4.10;;;1.58;;
59571;SDS011;59406;45.602;11.904;2023-04-03T01:37:53;4.07;;;1.40;;
59571;SDS011;59406;45.602;11.904;2023-04-03T01:40:18;4.37;;;2.00;;
59571;SDS011;59406;45.602;11.904;2023-04-03T01:42:45;4.38;;;1.65;;
59571;SDS011;59406;45.602;11.904;2023-04-03T01:45:11;4.38;;;1.88;;
59571;SDS011;59406;45.602;11.904;2023-04-03T01:47:36;4.78;;;1.80;;
59571;SDS011;59406;45.602;11.904;2023-04-03T01:50:03;4.90;;;1.97;;
59571;SDS011;59406;45.602;11.904;2023-04-03T01:52:29;4.13;;;1.60;;
59571;SDS011;59406;45.602;11.904;2023-04-03T01:54:55;4.63;;;2.05;;
59571;SDS011;59406;45.602;11.904;2023-04-03T01:57:21;4.65;;;2.13;;
59571;SDS011;59406;45.602;11.904;2023-04-03T01:59:47;5.63;;;2.40;;
59571;SDS011;59406;45.602;11.904;2023-04-03T02:02:13;5.43;;;1.90;;
59571;SDS011;59406;45.602;11.904;2023-04-03T02:04:40;4.50;;;1.80;;
59571;SDS011;59406;45.602;11.904;2023-04-03T02:07:06;4.50;;;1.80;;
59571;SDS011;59406;45.602;11.904;2023-04-03T02:09:32;4.60;;;1.70;;
59571;SDS011;59406;45.602;11.904;2023-04-03T02:11:58;4.73;;;1.80;;
59571;SDS011;59406;45.602;11.904;2023-04-03T02:14:24;4.45;;;1.70;;
59571;SDS011;59406;45.602;11.904;2023-04-03T02:16:52;4.00;;;1.55;;
59571;SDS011;59406;45.602;11.904;2023-04-03T02:19:18;3.80;;;1.30;;
59571;SDS011;59406;45.602;11.904;2023-04-03T02:21:44;5.00;;;2.17;;
59571;SDS011;59406;45.602;11.904;2023-04-03T02:24:10;5.00;;;2.15;;
59571;SDS011;59406;45.602;11.904;2023-04-03T02:26:36;4.88;;;2.20;;
59571;SDS011;59406;45.602;11.904;2023-04-03T02:29:02;4.35;;;1.60;;
59571;SDS011;59406;45.602;11.904;2023-04-03T02:31:28;4.93;;;1.73;;
59571;SDS011;59406;45.602;11.904;2023-04-03T02:33:54;4.57;;;2.08;;
59571;SDS011;59406;45.602;11.904;2023-04-03T02:36:20;5.32;;;2.13;;
59571;SDS011;59406;45.602;11.904;2023-04-03T02:38:46;4.90;;;2.28;;
59571;SDS011;59406;45.602;11.904;2023-04-03T02:41:13;6.13;;;2.10;;
59571;SDS011;59406;45.602;11.904;2023-04-03T02:43:39;4.82;;;2.28;;
59571;SDS011;59406;45.602;11.904;2023-04-03T02:46:06;4.30;;;2.10;;
59571;SDS011;59406;45.602;11.904;2023-04-03T02:48:32;5.53;;;2.05;;
59571;SDS011;59406;45.602;11.904;2023-04-03T02:50:58;5.13;;;2.10;;
59571;SDS011;59406;45.602;11.904;2023-04-03T02:53:24;4.95;;;2.30;;
59571;SDS011;59406;45.602;11.904;2023-04-03T02:55:50;4.60;;;1.98;;
59571;SDS011;59406;45.602;11.904;2023-04-03T02:58:16;4.63;;;1.67;;
59571;SDS011;59406;45.602;11.904;2023-04-03T03:00:42;4.53;;;1.70;;
59571;SDS011;59406;45.602;11.904;2023-04-03T03:03:08;5.85;;;1.60;;
59571;SDS011;59406;45.602;11.904;2023-04-03T03:05:34;4.55;;;1.58;;
59571;SDS011;59406;45.602;11.904;2023-04-03T03:08:01;4.60;;;1.77;;
59571;SDS011;59406;45.602;11.904;2023-04-03T03:10:27;3.93;;;1.40;;
59571;SDS011;59406;45.602;11.904;2023-04-03T03:12:53;5.07;;;2.10;;
59571;SDS011;59406;45.602;11.904;2023-04-03T03:15:19;4.53;;;1.73;;
59571;SDS011;59406;45.602;11.904;2023-04-03T03:17:45;5.15;;;1.50;;
59571;SDS011;59406;45.602;11.904;2023-04-03T03:20:11;4.10;;;1.30;;
59571;SDS011;59406;45.602;11.904;2023-04-03T03:22:40;3.70;;;1.20;;
59571;SDS011;59406;45.602;11.904;2023-04-03T03:25:06;3.70;;;1.15;;
59571;SDS011;59406;45.602;11.904;2023-04-03T03:27:33;3.75;;;1.27;;
59571;SDS011;59406;45.602;11.904;2023-04-03T03:29:59;5.70;;;1.80;;
59571;SDS011;59406;45.602;11.904;2023-04-03T03:32:25;4.00;;;1.20;;
59571;SDS011;59406;45.602;11.904;2023-04-03T03:34:51;3.28;;;1.30;;
59571;SDS011;59406;45.602;11.904;2023-04-03T03:37:17;4.22;;;1.52;;
59571;SDS011;59406;45.602;11.904;2023-04-03T03:39:43;4.70;;;1.57;;
59571;SDS011;59406;45.602;11.904;2023-04-03T03:42:09;4.53;;;1.60;;
59571;SDS011;59406;45.602;11.904;2023-04-03T03:44:36;3.97;;;1.60;;
59571;SDS011;59406;45.602;11.904;2023-04-03T03:49:31;4.35;;;1.30;;
59571;SDS011;59406;45.602;11.904;2023-04-03T03:51:57;3.90;;;1.43;;
59571;SDS011;59406;45.602;11.904;2023-04-03T03:54:23;4.05;;;1.20;;
59571;SDS011;59406;45.602;11.904;2023-04-03T03:56:55;4.15;;;1.40;;
59571;SDS011;59406;45.602;11.904;2023-04-03T03:59:21;4.53;;;1.30;;
59571;SDS011;59406;45.602;11.904;2023-04-03T04:01:47;4.70;;;1.20;;
59571;SDS011;59406;45.602;11.904;2023-04-03T04:04:13;4.30;;;1.30;;
59571;SDS011;59406;45.602;11.904;2023-04-03T04:06:39;3.65;;;1.13;;
59571;SDS011;59406;45.602;11.904;2023-04-03T04:09:05;4.05;;;1.20;;
59571;SDS011;59406;45.602;11.904;2023-04-03T04:11:31;3.60;;;1.10;;
59571;SDS011;59406;45.602;11.904;2023-04-03T04:13:58;3.97;;;1.33;;
59571;SDS011;59406;45.602;11.904;2023-04-03T04:16:24;3.58;;;1.05;;
59571;SDS011;59406;45.602;11.904;2023-04-03T04:18:50;3.65;;;1.30;;
59571;SDS011;59406;45.602;11.904;2023-04-03T04:21:16;4.03;;;1.50;;
59571;SDS011;59406;45.602;11.904;2023-04-03T04:23:42;3.47;;;1.23;;
59571;SDS011;59406;45.602;11.904;2023-04-03T04:26:08;4.40;;;1.50;;
59571;SDS011;59406;45.602;11.904;2023-04-03T04:28:34;4.23;;;1.20;;
59571;SDS011;59406;45.602;11.904;2023-04-03T04:31:00;4.05;;;1.15;;
59571;SDS011;59406;45.602;11.904;2023-04-03T04:33:25;3.08;;;1.10;;
59571;SDS011;59406;45.602;11.904;2023-04-03T04:35:51;3.70;;;1.50;;
59571;SDS011;59406;45.602;11.904;2023-04-03T04:38:18;3.60;;;1.10;;
59571;SDS011;59406;45.602;11.904;2023-04-03T04:40:43;4.97;;;1.10;;
59571;SDS011;59406;45.602;11.904;2023-04-03T04:43:09;2.83;;;0.80;;
59571;SDS011;59406;45.602;11.904;2023-04-03T04:45:39;3.70;;;1.20;;
59571;SDS011;59406;45.602;11.904;2023-04-03T04:48:06;4.10;;;1.00;;
59571;SDS011;59406;45.602;11.904;2023-04-03T04:50:32;3.40;;;0.90;;
59571;SDS011;59406;45.602;11.904;2023-04-03T04:52:57;4.03;;;1.27;;
59571;SDS011;59406;45.602;11.904;2023-04-03T04:55:23;4.23;;;0.80;;
59571;SDS011;59406;45.602;11.904;2023-04-03T04:57:49;3.55;;;0.90;;
59571;SDS011;59406;45.602;11.904;2023-04-03T05:00:16;2.97;;;0.90;;
59571;SDS011;59406;45.602;11.904;2023-04-03T05:02:42;3.38;;;0.90;;
59571;SDS011;59406;45.602;11.904;2023-04-03T05:05:08;3.55;;;1.08;;
59571;SDS011;59406;45.602;11.904;2023-04-03T05:07:34;3.63;;;1.00;;
59571;SDS011;59406;45.602;11.904;2023-04-03T05:10:01;3.78;;;1.00;;
59571;SDS011;59406;45.602;11.904;2023-04-03T05:12:28;3.30;;;1.00;;
59571;SDS011;59406;45.602;11.904;2023-04-03T05:14:54;3.50;;;0.85;;
59571;SDS011;59406;45.602;11.904;2023-04-03T05:17:20;3.60;;;1.20;;
59571;SDS011;59406;45.602;11.904;2023-04-03T05:19:46;4.40;;;0.95;;
59571;SDS011;59406;45.602;11.904;2023-04-03T05:22:12;3.50;;;0.90;;
59571;SDS011;59406;45.602;11.904;2023-04-03T05:24:38;3.70;;;0.97;;
59571;SDS011;59406;45.602;11.904;2023-04-03T05:27:04;3.33;;;1.00;;
59571;SDS011;59406;45.602;11.904;2023-04-03T05:29:30;3.95;;;1.15;;
59571;SDS011;59406;45.602;11.904;2023-04-03T05:31:57;3.75;;;0.98;;
59571;SDS011;59406;45.602;11.904;2023-04-03T05:34:23;3.88;;;0.88;;
59571;SDS011;59406;45.602;11.904;2023-04-03T05:36:48;3.40;;;0.90;;
59571;SDS011;59406;45.602;11.904;2023-04-03T05:39:15;3.90;;;1.00;;
59571;SDS011;59406;45.602;11.904;2023-04-03T05:41:41;3.92;;;0.90;;
59571;SDS011;59406;45.602;11.904;2023-04-03T05:44:07;3.23;;;0.87;;
59571;SDS011;59406;45.602;11.904;2023-04-03T05:46:32;3.65;;;0.85;;
59571;SDS011;59406;45.602;11.904;2023-04-03T05:48:58;3.38;;;0.70;;
59571;SDS011;59406;45.602;11.904;2023-04-03T05:51:25;3.50;;;0.90;;
59571;SDS011;59406;45.602;11.904;2023-04-03T05:54:10;2.90;;;0.73;;
59571;SDS011;59406;45.602;11.904;2023-04-03T05:56:36;3.70;;;1.08;;
59571;SDS011;59406;45.602;11.904;2023-04-03T05:59:02;3.42;;;0.80;;
59571;SDS011;59406;45.602;11.904;2023-04-03T06:01:28;5.53;;;1.00;;
59571;SDS011;59406;45.602;11.904;2023-04-03T06:03:54;4.20;;;0.77;;
59571;SDS011;59406;45.602;11.904;2023-04-03T06:06:20;4.88;;;1.45;;
59571;SDS011;59406;45.602;11.904;2023-04-03T06:08:47;4.82;;;1.73;;
59571;SDS011;59406;45.602;11.904;2023-04-03T06:11:13;5.05;;;1.08;;
59571;SDS011;59406;45.602;11.904;2023-04-03T06:13:40;4.07;;;1.23;;
59571;SDS011;59406;45.602;11.904;2023-04-03T06:16:06;4.47;;;1.20;;
59571;SDS011;59406;45.602;11.904;2023-04-03T06:18:31;4.07;;;1.20;;
59571;SDS011;59406;45.602;11.904;2023-04-03T06:20:57;4.53;;;1.30;;
59571;SDS011;59406;45.602;11.904;2023-04-03T06:23:23;4.78;;;1.25;;
59571;SDS011;59406;45.602;11.904;2023-04-03T06:25:49;4.13;;;1.10;;
59571;SDS011;59406;45.602;11.904;2023-04-03T06:28:15;3.50;;;0.90;;
59571;SDS011;59406;45.602;11.904;2023-04-03T06:30:41;3.13;;;0.80;;
59571;SDS011;59406;45.602;11.904;2023-04-03T06:33:07;2.90;;;0.80;;
59571;SDS011;59406;45.602;11.904;2023-04-03T06:35:33;3.90;;;0.90;;
59571;SDS011;59406;45.602;11.904;2023-04-03T06:38:00;3.58;;;0.90;;
59571;SDS011;59406;45.602;11.904;2023-04-03T06:40:26;3.00;;;0.73;;
59571;SDS011;59406;45.602;11.904;2023-04-03T06:42:52;3.65;;;0.80;;
59571;SDS011;59406;45.602;11.904;2023-04-03T06:45:18;3.53;;;0.95;;
59571;SDS011;59406;45.602;11.904;2023-04-03T06:47:44;3.92;;;0.73;;
59571;SDS011;59406;45.602;11.904;2023-04-03T06:50:11;3.53;;;1.00;;
59571;SDS011;59406;45.602;11.904;2023-04-03T06:52:39;4.43;;;0.95;;
59571;SDS011;59406;45.602;11.904;2023-04-03T06:55:05;2.53;;;0.40;;
59571;SDS011;59406;45.602;11.904;2023-04-03T06:57:32;3.30;;;0.98;;
59571;SDS011;59406;45.602;11.904;2023-04-03T06:59:58;4.00;;;0.77;;
59571;SDS011;59406;45.602;11.904;2023-04-03T07:02:25;3.30;;;0.70;;
59571;SDS011;59406;45.602;11.904;2023-04-03T07:04:51;3.55;;;0.70;;
59571;SDS011;59406;45.602;11.904;2023-04-03T07:07:17;3.47;;;0.90;;
59571;SDS011;59406;45.602;11.904;2023-04-03T07:09:43;3.10;;;0.73;;
59571;SDS011;59406;45.602;11.904;2023-04-03T07:12:09;4.93;;;0.93;;
59571;SDS011;59406;45.602;11.904;2023-04-03T07:14:36;2.78;;;0.55;;
59571;SDS011;59406;45.602;11.904;2023-04-03T07:17:02;3.33;;;0.70;;
59571;SDS011;59406;45.602;11.904;2023-04-03T07:19:27;2.47;;;0.60;;
59571;SDS011;59406;45.602;11.904;2023-04-03T07:21:53;4.40;;;0.90;;
59571;SDS011;59406;45.602;11.904;2023-04-03T07:24:20;5.80;;;0.73;;
59571;SDS011;59406;45.602;11.904;2023-04-03T07:26:49;4.25;;;0.90;;
59571;SDS011;59406;45.602;11.904;2023-04-03T07:29:17;3.70;;;0.98;;
59571;SDS011;59406;45.602;11.904;2023-04-03T07:31:43;4.53;;;0.73;;
59571;SDS011;59406;45.602;11.904;2023-04-03T07:34:10;3.70;;;1.10;;
59571;SDS011;59406;45.602;11.904;2023-04-03T07:36:36;3.45;;;0.90;;
59571;SDS011;59406;45.602;11.904;2023-04-03T07:39:03;3.60;;;1.10;;
59571;SDS011;59406;45.602;11.904;2023-04-03T07:41:29;5.03;;;0.70;;
59571;SDS011;59406;45.602;11.904;2023-04-03T07:43:55;4.70;;;1.02;;
59571;SDS011;59406;45.602;11.904;2023-04-03T07:46:22;3.20;;;0.67;;
59571;SDS011;59406;45.602;11.904;2023-04-03T07:48:48;4.03;;;0.52;;
59571;SDS011;59406;45.602;11.904;2023-04-03T07:51:14;3.78;;;0.70;;
59571;SDS011;59406;45.602;11.904;2023-04-03T07:53:41;3.30;;;0.80;;
59571;SDS011;59406;45.602;11.904;2023-04-03T07:56:07;4.27;;;0.93;;
59571;SDS011;59406;45.602;11.904;2023-04-03T07:58:34;3.60;;;0.60;;
59571;SDS011;59406;45.602;11.904;2023-04-03T08:01:01;6.20;;;0.80;;
59571;SDS011;59406;45.602;11.904;2023-04-03T08:03:26;3.22;;;0.55;;
59571;SDS011;59406;45.602;11.904;2023-04-03T08:08:19;3.08;;;0.75;;
59571;SDS011;59406;45.602;11.904;2023-04-03T08:10:53;2.37;;;0.40;;
59571;SDS011;59406;45.602;11.904;2023-04-03T08:13:19;3.05;;;0.68;;
59571;SDS011;59406;45.602;11.904;2023-04-03T08:15:46;3.47;;;0.47;;
59571;SDS011;59406;45.602;11.904;2023-04-03T08:18:13;3.50;;;0.70;;
59571;SDS011;59406;45.602;11.904;2023-04-03T08:20:40;3.28;;;0.90;;
59571;SDS011;59406;45.602;11.904;2023-04-03T08:23:07;3.83;;;0.40;;
59571;SDS011;59406;45.602;11.904;2023-04-03T08:25:34;4.05;;;0.55;;
59571;SDS011;59406;45.602;11.904;2023-04-03T08:28:04;3.78;;;0.70;;
59571;SDS011;59406;45.602;11.904;2023-04-03T08:30:30;4.07;;;0.90;;
59571;SDS011;59406;45.602;11.904;2023-04-03T08:32:56;4.20;;;0.75;;
59571;SDS011;59406;45.602;11.904;2023-04-03T08:35:22;3.07;;;0.40;;
59571;SDS011;59406;45.602;11.904;2023-04-03T08:37:48;3.00;;;0.60;;
59571;SDS011;59406;45.602;11.904;2023-04-03T08:40:15;4.05;;;0.50;;
59571;SDS011;59406;45.602;11.904;2023-04-03T08:45:15;3.17;;;0.67;;
59571;SDS011;59406;45.602;11.904;2023-04-03T08:47:52;3.30;;;0.80;;
59571;SDS011;59406;45.602;11.904;2023-04-03T08:50:30;2.63;;;0.63;;
59571;SDS011;59406;45.602;11.904;2023-04-03T08:53:01;2.58;;;0.50;;
59571;SDS011;59406;45.602;11.904;2023-04-03T08:55:37;2.92;;;0.40;;
59571;SDS011;59406;45.602;11.904;2023-04-03T09:00:49;5.85;;;0.75;;
59571;SDS011;59406;45.602;11.904;2023-04-03T09:03:21;3.67;;;0.77;;
59571;SDS011;59406;45.602;11.904;2023-04-03T09:05:50;2.88;;;0.57;;
59571;SDS011;59406;45.602;11.904;2023-04-03T09:13:58;3.90;;;0.60;;
59571;SDS011;59406;45.602;11.904;2023-04-03T09:16:45;3.25;;;0.70;;
59571;SDS011;59406;45.602;11.904;2023-04-03T09:19:30;3.17;;;0.60;;
59571;SDS011;59406;45.602;11.904;2023-04-03T09:24:35;3.20;;;0.70;;
59571;SDS011;59406;45.602;11.904;2023-04-03T09:27:06;3.22;;;0.57;;
59571;SDS011;59406;45.602;11.904;2023-04-03T09:29:36;3.65;;;1.00;;
59571;SDS011;59406;45.602;11.904;2023-04-03T09:32:30;3.90;;;0.80;;
59571;SDS011;59406;45.602;11.904;2023-04-03T09:34:59;3.22;;;0.45;;
59571;SDS011;59406;45.602;11.904;2023-04-03T09:42:55;3.47;;;0.82;;
59571;SDS011;59406;45.602;11.904;2023-04-03T09:45:27;4.25;;;0.93;;
59571;SDS011;59406;45.602;11.904;2023-04-03T09:48:09;3.15;;;0.60;;
59571;SDS011;59406;45.602;11.904;2023-04-03T09:53:41;3.75;;;0.60;;
59571;SDS011;59406;45.602;11.904;2023-04-03T09:58:47;2.75;;;0.70;;
59571;SDS011;59406;45.602;11.904;2023-04-03T10:01:23;3.65;;;0.88;;
59571;SDS011;59406;45.602;11.904;2023-04-03T10:04:02;3.37;;;0.50;;
59571;SDS011;59406;45.602;11.904;2023-04-03T10:06:35;3.08;;;0.32;;
59571;SDS011;59406;45.602;11.904;2023-04-03T10:09:14;4.03;;;0.70;;
59571;SDS011;59406;45.602;11.904;2023-04-03T10:12:20;4.50;;;0.93;;
59571;SDS011;59406;45.602;11.904;2023-04-03T10:14:41;3.78;;;0.80;;
59571;SDS011;59406;45.602;11.904;2023-04-03T10:17:36;5.87;;;1.13;;
59571;SDS011;59406;45.602;11.904;2023-04-03T10:31:14;3.60;;;0.77;;
59571;SDS011;59406;45.602;11.904;2023-04-03T10:34:05;4.22;;;0.98;;
59571;SDS011;59406;45.602;11.904;2023-04-03T10:39:36;2.63;;;0.60;;
59571;SDS011;59406;45.602;11.904;2023-04-03T10:45:03;4.37;;;0.67;;
59571;SDS011;59406;45.602;11.904;2023-04-03T10:47:40;3.67;;;0.70;;
59571;SDS011;59406;45.602;11.904;2023-04-03T10:50:29;4.10;;;0.85;;
59571;SDS011;59406;45.602;11.904;2023-04-03T10:53:18;3.67;;;0.80;;
59571;SDS011;59406;45.602;11.904;2023-04-03T10:56:15;4.18;;;0.77;;
59571;SDS011;59406;45.602;11.904;2023-04-03T11:01:33;3.22;;;0.77;;
59571;SDS011;59406;45.602;11.904;2023-04-03T11:04:04;3.67;;;1.00;;
59571;SDS011;59406;45.602;11.904;2023-04-03T11:06:34;5.65;;;1.00;;
59571;SDS011;59406;45.602;11.904;2023-04-03T11:09:16;4.53;;;0.60;;
59571;SDS011;59406;45.602;11.904;2023-04-03T11:11:49;5.83;;;0.90;;
59571;SDS011;59406;45.602;11.904;2023-04-03T11:17:19;3.30;;;0.70;;
59571;SDS011;59406;45.602;11.904;2023-04-03T11:22:53;3.47;;;0.70;;
59571;SDS011;59406;45.602;11.904;2023-04-03T11:25:25;3.47;;;0.70;;
59571;SDS011;59406;45.602;11.904;2023-04-03T11:27:55;3.45;;;0.80;;
59571;SDS011;59406;45.602;11.904;2023-04-03T11:35:53;3.10;;;0.60;;
59571;SDS011;59406;45.602;11.904;2023-04-03T11:38:28;4.63;;;0.73;;
59571;SDS011;59406;45.602;11.904;2023-04-03T11:41:01;4.40;;;1.30;;
59571;SDS011;59406;45.602;11.904;2023-04-03T11:43:29;3.47;;;0.70;;
59571;SDS011;59406;45.602;11.904;2023-04-03T11:46:03;4.10;;;0.68;;
59571;SDS011;59406;45.602;11.904;2023-04-03T11:53:38;6.03;;;1.20;;
59571;SDS011;59406;45.602;11.904;2023-04-03T12:01:46;2.97;;;0.50;;
59571;SDS011;59406;45.602;11.904;2023-04-03T12:04:21;2.70;;;0.40;;
59571;SDS011;59406;45.602;11.904;2023-04-03T12:06:50;3.60;;;0.60;;
59571;SDS011;59406;45.602;11.904;2023-04-03T12:12:24;2.72;;;0.60;;
59571;SDS011;59406;45.602;11.904;2023-04-03T12:14:51;2.33;;;0.40;;
59571;SDS011;59406;45.602;11.904;2023-04-03T12:17:21;3.23;;;0.67;;
59571;SDS011;59406;45.602;11.904;2023-04-03T12:19:52;3.50;;;0.85;;
59571;SDS011;59406;45.602;11.904;2023-04-03T12:22:19;3.53;;;0.95;;
59571;SDS011;59406;45.602;11.904;2023-04-03T12:24:50;2.72;;;0.60;;
59571;SDS011;59406;45.602;11.904;2023-04-03T12:27:21;3.17;;;0.98;;
59571;SDS011;59406;45.602;11.904;2023-04-03T12:35:35;4.15;;;0.40;;
59571;SDS011;59406;45.602;11.904;2023-04-03T12:38:21;4.03;;;0.80;;
59571;SDS011;59406;45.602;11.904;2023-04-03T12:43:31;5.63;;;0.70;;
59571;SDS011;59406;45.602;11.904;2023-04-03T12:48:58;2.50;;;0.50;;
59571;SDS011;59406;45.602;11.904;2023-04-03T12:51:43;2.55;;;0.40;;
59571;SDS011;59406;45.602;11.904;2023-04-03T12:54:16;3.67;;;0.40;;
59571;SDS011;59406;45.602;11.904;2023-04-03T12:56:45;3.97;;;0.50;;
59571;SDS011;59406;45.602;11.904;2023-04-03T12:59:21;2.88;;;0.40;;
59571;SDS011;59406;45.602;11.904;2023-04-03T13:01:55;4.20;;;0.60;;
59571;SDS011;59406;45.602;11.904;2023-04-03T13:04:22;4.22;;;0.60;;
59571;SDS011;59406;45.602;11.904;2023-04-03T13:06:49;3.20;;;0.90;;
59571;SDS011;59406;45.602;11.904;2023-04-03T13:09:20;3.50;;;0.80;;
59571;SDS011;59406;45.602;11.904;2023-04-03T13:14:38;3.38;;;0.68;;
59571;SDS011;59406;45.602;11.904;2023-04-03T13:17:09;3.78;;;0.85;;
59571;SDS011;59406;45.602;11.904;2023-04-03T13:19:40;5.57;;;0.90;;
59571;SDS011;59406;45.602;11.904;2023-04-03T13:22:08;2.93;;;0.73;;
59571;SDS011;59406;45.602;11.904;2023-04-03T13:24:52;3.75;;;0.77;;
59571;SDS011;59406;45.602;11.904;2023-04-03T13:27:20;3.10;;;0.70;;
59571;SDS011;59406;45.602;11.904;2023-04-03T13:29:50;3.88;;;0.80;;
59571;SDS011;59406;45.602;11.904;2023-04-03T13:32:20;3.65;;;1.00;;
59571;SDS011;59406;45.602;11.904;2023-04-03T13:34:50;3.10;;;0.73;;
59571;SDS011;59406;45.602;11.904;2023-04-03T13:37:26;3.38;;;1.00;;
59571;SDS011;59406;45.602;11.904;2023-04-03T13:42:26;3.15;;;0.60;;
59571;SDS011;59406;45.602;11.904;2023-04-03T13:47:44;3.50;;;0.90;;
59571;SDS011;59406;45.602;11.904;2023-04-03T13:52:41;3.83;;;1.20;;
59571;SDS011;59406;45.602;11.904;2023-04-03T13:55:29;3.35;;;0.80;;
59571;SDS011;59406;45.602;11.904;2023-04-03T13:58:01;2.80;;;0.80;;
59571;SDS011;59406;45.602;11.904;2023-04-03T14:00:49;3.47;;;0.70;;
59571;SDS011;59406;45.602;11.904;2023-04-03T14:03:40;3.67;;;1.00;;
59571;SDS011;59406;45.602;11.904;2023-04-03T14:06:06;3.30;;;1.00;;
59571;SDS011;59406;45.602;11.904;2023-04-03T14:08:35;3.80;;;1.25;;
59571;SDS011;59406;45.602;11.904;2023-04-03T14:11:01;3.33;;;0.70;;
59571;SDS011;59406;45.602;11.904;2023-04-03T14:13:29;3.70;;;0.90;;
59571;SDS011;59406;45.602;11.904;2023-04-03T14:15:56;4.18;;;1.17;;
59571;SDS011;59406;45.602;11.904;2023-04-03T14:18:22;3.30;;;0.80;;
59571;SDS011;59406;45.602;11.904;2023-04-03T14:20:47;3.20;;;0.93;;
59571;SDS011;59406;45.602;11.904;2023-04-03T14:23:14;3.40;;;0.65;;
59571;SDS011;59406;45.602;11.904;2023-04-03T14:25:40;3.10;;;0.60;;
59571;SDS011;59406;45.602;11.904;2023-04-03T14:28:15;2.80;;;0.50;;
59571;SDS011;59406;45.602;11.904;2023-04-03T14:30:44;4.00;;;0.80;;
59571;SDS011;59406;45.602;11.904;2023-04-03T14:33:12;2.53;;;0.60;;
59571;SDS011;59406;45.602;11.904;2023-04-03T14:35:41;5.25;;;0.90;;
59571;SDS011;59406;45.602;11.904;2023-04-03T14:38:27;3.05;;;0.50;;
59571;SDS011;59406;45.602;11.904;2023-04-03T14:40:54;3.50;;;0.60;;
59571;SDS011;59406;45.602;11.904;2023-04-03T14:43:20;3.17;;;0.90;;
59571;SDS011;59406;45.602;11.904;2023-04-03T14:45:47;4.10;;;0.60;;
59571;SDS011;59406;45.602;11.904;2023-04-03T14:48:21;3.95;;;0.55;;
59571;SDS011;59406;45.602;11.904;2023-04-03T14:50:49;3.88;;;0.80;;
59571;SDS011;59406;45.602;11.904;2023-04-03T14:53:16;4.45;;;0.70;;
59571;SDS011;59406;45.602;11.904;2023-04-03T14:55:46;3.20;;;0.80;;
59571;SDS011;59406;45.602;11.904;2023-04-03T14:58:16;3.20;;;0.47;;
59571;SDS011;59406;45.602;11.904;2023-04-03T15:00:43;4.25;;;0.60;;
59571;SDS011;59406;45.602;11.904;2023-04-03T15:03:14;4.22;;;0.60;;
59571;SDS011;59406;45.602;11.904;2023-04-03T15:05:45;3.20;;;0.40;;
59571;SDS011;59406;45.602;11.904;2023-04-03T15:08:22;4.80;;;0.80;;
59571;SDS011;59406;45.602;11.904;2023-04-03T15:10:50;2.63;;;0.47;;
59571;SDS011;59406;45.602;11.904;2023-04-03T15:13:18;3.05;;;0.43;;
59571;SDS011;59406;45.602;11.904;2023-04-03T15:15:45;2.95;;;0.38;;
59571;SDS011;59406;45.602;11.904;2023-04-03T15:18:17;4.32;;;0.88;;
59571;SDS011;59406;45.602;11.904;2023-04-03T15:20:45;3.70;;;0.50;;
59571;SDS011;59406;45.602;11.904;2023-04-03T15:23:12;3.00;;;0.50;;
59571;SDS011;59406;45.602;11.904;2023-04-03T15:25:41;6.32;;;0.52;;
59571;SDS011;59406;45.602;11.904;2023-04-03T15:28:09;4.07;;;0.70;;
59571;SDS011;59406;45.602;11.904;2023-04-03T15:30:59;3.80;;;0.50;;
59571;SDS011;59406;45.602;11.904;2023-04-03T15:33:25;3.40;;;0.60;;
59571;SDS011;59406;45.602;11.904;2023-04-03T15:35:52;4.33;;;0.60;;
59571;SDS011;59406;45.602;11.904;2023-04-03T15:38:18;3.90;;;0.60;;
59571;SDS011;59406;45.602;11.904;2023-04-03T15:40:44;3.05;;;0.50;;
59571;SDS011;59406;45.602;11.904;2023-04-03T15:43:12;3.70;;;0.50;;
59571;SDS011;59406;45.602;11.904;2023-04-03T15:45:39;4.20;;;0.43;;
59571;SDS011;59406;45.602;11.904;2023-04-03T15:48:06;1.80;;;0.20;;
59571;SDS011;59406;45.602;11.904;2023-04-03T15:50:33;2.65;;;0.38;;
59571;SDS011;59406;45.602;11.904;2023-04-03T15:52:59;2.92;;;0.40;;
59571;SDS011;59406;45.602;11.904;2023-04-03T15:55:30;3.28;;;0.60;;
59571;SDS011;59406;45.602;11.904;2023-04-03T15:57:58;3.60;;;0.30;;
59571;SDS011;59406;45.602;11.904;2023-04-03T16:00:46;3.30;;;0.30;;
59571;SDS011;59406;45.602;11.904;2023-04-03T16:03:15;4.57;;;0.63;;
59571;SDS011;59406;45.602;11.904;2023-04-03T16:05:42;4.22;;;0.50;;
59571;SDS011;59406;45.602;11.904;2023-04-03T16:08:08;4.57;;;0.70;;
59571;SDS011;59406;45.602;11.904;2023-04-03T16:10:35;2.95;;;0.40;;
59571;SDS011;59406;45.602;11.904;2023-04-03T16:13:02;5.20;;;0.90;;
59571;SDS011;59406;45.602;11.904;2023-04-03T16:15:29;3.65;;;0.60;;
59571;SDS011;59406;45.602;11.904;2023-04-03T16:17:56;3.08;;;0.50;;
59571;SDS011;59406;45.602;11.904;2023-04-03T16:20:23;4.72;;;0.70;;
59571;SDS011;59406;45.602;11.904;2023-04-03T16:22:50;3.42;;;0.40;;